Time;durP1;ratioP1;P1;durP2;ratioP2;P2;SDS_P1;SDS_P2;PMS_P1;PMS_P2;Temp;Humidity;BMP_temperature;BMP_pressure;BME280_temperature;BME280_humidity;BME280_pressure;Samples;Min_cycle;Max_cycle;Signal;HPM_P1;HPM_P2
2020/12/20 00:00:25;;;;;;;1.35;0.80;;;20.30;50.60;;;;;;4996222;28;20030;-55
2020/12/20 00:02:55;;;;;;;2.10;0.90;;;20.30;50.70;;;;;;4995987;28;20035;-49
2020/12/20 00:05:22;;;;;;;4.10;1.10;;;20.30;50.70;;;;;;4996516;28;20074;-54
2020/12/20 00:07:48;;;;;;;1.58;1.10;;;20.20;50.70;;;;;;4996463;28;20037;-52
2020/12/20 00:10:14;;;;;;;1.10;1.00;;;20.20;50.80;;;;;;4996137;28;20117;-55
2020/12/20 00:12:40;;;;;;;1.73;1.10;;;20.20;50.80;;;;;;4996482;28;20430;-52
2020/12/20 00:15:06;;;;;;;0.80;0.80;;;20.20;50.80;;;;;;4995926;28;20038;-55
2020/12/20 00:17:32;;;;;;;1.00;0.90;;;20.10;50.80;;;;;;4996027;28;20031;-51
2020/12/20 00:19:57;;;;;;;2.80;1.30;;;20.10;50.90;;;;;;4995873;28;20464;-48
2020/12/20 00:22:23;;;;;;;2.55;0.88;;;20.10;51.00;;;;;;4996322;28;20061;-56
2020/12/20 00:24:48;;;;;;;3.53;1.10;;;20.10;51.20;;;;;;4996321;28;20049;-55
2020/12/20 00:27:14;;;;;;;1.23;0.95;;;20.10;51.30;;;;;;4996364;28;20030;-49
2020/12/20 00:29:40;;;;;;;2.13;0.95;;;20.10;51.50;;;;;;4996118;28;20045;-55
2020/12/20 00:32:08;;;;;;;1.30;0.80;;;20.10;51.60;;;;;;4995828;28;20109;-52
2020/12/20 00:34:34;;;;;;;0.98;0.93;;;20.00;51.60;;;;;;4996032;28;20045;-51
2020/12/20 00:37:00;;;;;;;1.65;0.88;;;20.10;51.60;;;;;;4995939;28;20038;-52
2020/12/20 00:39:26;;;;;;;2.83;1.35;;;20.00;51.60;;;;;;4996383;28;20061;-50
2020/12/20 00:41:57;;;;;;;1.90;1.00;;;20.10;51.70;;;;;;4995962;28;20409;-51
2020/12/20 00:44:24;;;;;;;2.53;0.98;;;20.10;51.70;;;;;;4996144;28;20035;-52
2020/12/20 00:46:50;;;;;;;1.23;0.85;;;20.10;51.70;;;;;;4996198;28;20054;-55
2020/12/20 00:49:16;;;;;;;1.30;0.90;;;20.10;51.70;;;;;;4995869;28;20085;-55
2020/12/20 00:51:42;;;;;;;2.00;1.10;;;20.00;51.70;;;;;;4995905;28;20377;-53
2020/12/20 00:54:07;;;;;;;1.10;0.80;;;20.00;51.70;;;;;;4995649;28;20049;-54
2020/12/20 00:56:33;;;;;;;1.20;1.10;;;20.00;51.70;;;;;;4995862;28;20344;-52
2020/12/20 00:58:59;;;;;;;1.38;0.95;;;20.00;51.70;;;;;;4995990;28;20066;-56
2020/12/20 01:01:25;;;;;;;1.40;0.80;;;20.00;51.70;;;;;;4995141;28;20483;-49
2020/12/20 01:03:51;;;;;;;1.00;0.70;;;20.00;51.80;;;;;;4995005;28;20035;-52
2020/12/20 01:06:23;;;;;;;2.03;0.82;;;20.00;51.80;;;;;;4995610;28;20478;-55
2020/12/20 01:08:51;;;;;;;1.65;0.70;;;20.00;51.80;;;;;;4995944;28;20079;-53
2020/12/20 01:11:18;;;;;;;0.82;0.80;;;20.00;51.80;;;;;;4995323;28;20085;-56
2020/12/20 01:13:45;;;;;;;0.82;0.75;;;20.00;51.80;;;;;;4995881;28;20041;-54
2020/12/20 01:16:22;;;;;;;1.33;0.80;;;20.00;51.80;;;;;;4995395;28;20452;-57
2020/12/20 01:18:48;;;;;;;1.05;0.80;;;20.00;51.80;;;;;;4995512;28;20040;-52
2020/12/20 01:21:14;;;;;;;0.75;0.70;;;20.00;51.80;;;;;;4995507;28;20040;-53
2020/12/20 01:23:40;;;;;;;0.85;0.77;;;20.00;52.50;;;;;;4995299;28;20039;-55
2020/12/20 01:26:06;;;;;;;1.25;0.80;;;20.00;51.80;;;;;;4995431;28;20056;-52
2020/12/20 01:28:32;;;;;;;1.95;0.90;;;19.90;51.80;;;;;;4995354;28;20143;-53
2020/12/20 01:30:59;;;;;;;1.42;0.90;;;19.90;51.80;;;;;;4995504;28;20035;-54
2020/12/20 01:33:24;;;;;;;0.70;0.70;;;19.90;51.80;;;;;;4995090;28;20528;-51
2020/12/20 01:35:50;;;;;;;0.90;0.75;;;19.90;51.80;;;;;;4995620;28;20066;-52
2020/12/20 01:38:16;;;;;;;0.70;0.70;;;20.00;51.80;;;;;;4995224;28;20058;-49
2020/12/20 01:40:49;;;;;;;1.33;0.70;;;19.90;51.80;;;;;;4995244;28;20035;-51
2020/12/20 01:43:14;;;;;;;1.48;0.93;;;19.90;51.80;;;;;;4978186;28;20420;-48
2020/12/20 01:45:40;;;;;;;1.10;0.98;;;19.90;51.80;;;;;;4994850;28;20046;-52
2020/12/20 01:48:07;;;;;;;2.03;0.73;;;19.90;51.80;;;;;;4995256;28;20044;-55
2020/12/20 01:50:33;;;;;;;0.80;0.60;;;19.90;51.80;;;;;;4995492;28;20035;-51
2020/12/20 01:52:59;;;;;;;1.40;0.80;;;19.90;51.90;;;;;;4995050;28;20030;-52
2020/12/20 01:55:28;;;;;;;1.50;0.82;;;19.90;51.80;;;;;;4995205;28;20034;-50
2020/12/20 01:57:55;;;;;;;1.50;0.75;;;19.80;51.80;;;;;;4995184;28;20050;-56
2020/12/20 02:00:21;;;;;;;0.70;0.70;;;19.80;51.80;;;;;;4995328;28;20066;-51
2020/12/20 02:02:46;;;;;;;1.05;0.68;;;19.80;51.80;;;;;;4995422;28;20070;-53
2020/12/20 02:05:12;;;;;;;1.20;0.80;;;19.80;51.90;;;;;;4994742;28;20121;-49
2020/12/20 02:07:38;;;;;;;0.80;0.75;;;19.80;51.80;;;;;;4994916;28;20093;-54
2020/12/20 02:10:04;;;;;;;1.70;0.82;;;19.80;51.90;;;;;;4994933;28;20042;-48
2020/12/20 02:12:29;;;;;;;0.50;0.50;;;19.80;51.90;;;;;;4995084;28;20035;-51
2020/12/20 02:14:55;;;;;;;0.70;0.60;;;19.80;51.90;;;;;;4997989;28;20038;-51
2020/12/20 02:17:21;;;;;;;0.85;0.52;;;19.80;51.90;;;;;;4998592;28;20026;-51
2020/12/20 02:19:47;;;;;;;2.25;0.77;;;19.80;51.90;;;;;;4998968;28;20453;-48
2020/12/20 02:22:13;;;;;;;0.98;0.77;;;19.80;51.90;;;;;;4998386;28;20030;-55
2020/12/20 02:24:39;;;;;;;1.13;0.98;;;19.80;51.90;;;;;;4998537;28;20038;-52
2020/12/20 02:27:05;;;;;;;0.73;0.73;;;19.80;51.90;;;;;;4998635;28;20053;-53
2020/12/20 02:29:32;;;;;;;1.85;0.90;;;19.80;51.90;;;;;;4998456;28;20039;-51
2020/12/20 02:31:58;;;;;;;1.83;0.60;;;19.70;51.90;;;;;;4998649;28;20038;-54
2020/12/20 02:34:24;;;;;;;0.80;0.60;;;19.70;51.90;;;;;;4998374;28;20042;-49
2020/12/20 02:36:50;;;;;;;0.73;0.60;;;19.70;51.90;;;;;;4998398;28;20030;-50
2020/12/20 02:39:15;;;;;;;1.50;1.20;;;19.70;51.90;;;;;;4997943;28;20046;-53
2020/12/20 02:41:41;;;;;;;0.93;0.70;;;19.70;51.90;;;;;;4998239;28;20118;-50
2020/12/20 02:44:07;;;;;;;1.10;0.60;;;19.70;51.90;;;;;;4998172;28;20441;-50
2020/12/20 02:46:32;;;;;;;1.63;0.73;;;19.70;51.90;;;;;;4998138;28;20042;-51
2020/12/20 02:48:58;;;;;;;0.98;0.73;;;19.70;52.60;;;;;;4997799;28;20112;-52
2020/12/20 02:51:24;;;;;;;1.83;1.02;;;19.70;51.90;;;;;;4998165;28;20037;-52
2020/12/20 02:53:50;;;;;;;0.77;0.60;;;19.70;51.90;;;;;;4997978;28;20100;-53
2020/12/20 02:56:19;;;;;;;1.13;0.73;;;19.70;52.00;;;;;;4998092;28;20445;-55
2020/12/20 02:58:47;;;;;;;1.25;0.85;;;19.70;52.00;;;;;;4981349;28;20331;-50
2020/12/20 03:01:13;;;;;;;0.75;0.60;;;19.60;51.90;;;;;;4997779;28;20042;-50
2020/12/20 03:03:39;;;;;;;1.75;0.95;;;19.60;51.90;;;;;;4998015;28;20037;-51
2020/12/20 03:06:04;;;;;;;0.82;0.60;;;19.60;51.90;;;;;;4997580;28;20046;-52
2020/12/20 03:08:30;;;;;;;1.13;0.55;;;19.60;51.90;;;;;;4997783;28;20034;-52
2020/12/20 03:10:55;;;;;;;1.58;0.93;;;19.60;52.00;;;;;;4997479;28;20034;-52
2020/12/20 03:13:21;;;;;;;1.40;0.93;;;19.60;52.00;;;;;;4997675;28;20042;-55
2020/12/20 03:15:46;;;;;;;0.93;0.55;;;19.60;52.00;;;;;;4997533;28;20034;-51
2020/12/20 03:18:12;;;;;;;0.73;0.50;;;19.60;52.00;;;;;;4997395;28;20405;-49
2020/12/20 03:20:37;;;;;;;1.50;0.60;;;19.60;52.00;;;;;;4997384;28;20038;-50
2020/12/20 03:23:04;;;;;;;1.05;0.70;;;19.60;52.00;;;;;;4997666;28;20050;-55
2020/12/20 03:25:30;;;;;;;1.02;0.70;;;19.60;52.00;;;;;;4996485;28;20069;-49
2020/12/20 03:27:56;;;;;;;0.80;0.70;;;19.60;52.00;;;;;;4997391;28;20030;-52
2020/12/20 03:30:22;;;;;;;1.73;1.13;;;19.60;52.00;;;;;;4997319;28;20045;-51
2020/12/20 03:32:48;;;;;;;1.67;1.02;;;19.50;52.00;;;;;;4997530;28;20117;-51
2020/12/20 03:35:14;;;;;;;2.42;0.88;;;19.50;52.00;;;;;;4996975;28;20034;-58
2020/12/20 03:37:50;;;;;;;0.80;0.70;;;19.50;52.00;;;;;;4997078;28;20050;-51
2020/12/20 03:40:17;;;;;;;0.98;0.88;;;19.50;52.00;;;;;;4996930;28;20118;-52
2020/12/20 03:42:43;;;;;;;2.25;0.90;;;19.50;52.00;;;;;;4997340;28;20034;-52
2020/12/20 03:45:09;;;;;;;0.55;0.55;;;19.50;52.00;;;;;;4996658;28;20056;-51
2020/12/20 03:47:34;;;;;;;0.85;0.63;;;19.50;52.00;;;;;;4996895;28;20045;-52
2020/12/20 03:50:00;;;;;;;0.90;0.60;;;19.50;52.10;;;;;;4996863;28;20360;-54
2020/12/20 03:52:25;;;;;;;0.77;0.60;;;19.50;52.00;;;;;;4997022;28;20034;-53
2020/12/20 03:54:51;;;;;;;1.33;0.70;;;19.50;52.10;;;;;;4996948;28;20027;-54
2020/12/20 03:57:16;;;;;;;1.20;0.77;;;19.50;52.10;;;;;;4996581;28;20491;-56
2020/12/20 03:59:42;;;;;;;1.13;0.52;;;19.50;52.10;;;;;;4996786;28;20117;-51
2020/12/20 04:02:07;;;;;;;0.70;0.70;;;19.50;52.10;;;;;;4996512;28;20326;-56
2020/12/20 04:04:33;;;;;;;1.92;0.70;;;19.50;52.10;;;;;;4996567;28;20401;-54
2020/12/20 04:06:59;;;;;;;1.40;0.63;;;19.40;52.10;;;;;;4996267;28;20462;-51
2020/12/20 04:09:24;;;;;;;0.70;0.70;;;19.50;52.10;;;;;;4996640;28;20065;-52
2020/12/20 04:11:50;;;;;;;0.70;0.63;;;19.40;52.10;;;;;;4996731;28;20089;-52
2020/12/20 04:14:15;;;;;;;1.58;0.50;;;19.40;52.10;;;;;;4996713;28;20046;-50
2020/12/20 04:16:41;;;;;;;1.20;0.70;;;19.40;52.10;;;;;;4996242;28;20066;-56
2020/12/20 04:19:06;;;;;;;0.65;0.65;;;19.40;52.10;;;;;;4996355;28;20042;-50
2020/12/20 04:21:32;;;;;;;1.10;0.70;;;19.40;52.10;;;;;;4996378;28;20092;-50
2020/12/20 04:23:57;;;;;;;0.73;0.55;;;19.40;52.10;;;;;;4996318;28;20450;-48
2020/12/20 04:26:23;;;;;;;1.00;0.60;;;19.40;52.10;;;;;;4995920;28;20050;-48
2020/12/20 04:28:49;;;;;;;0.73;0.70;;;19.40;52.10;;;;;;4996285;28;20026;-50
2020/12/20 04:31:14;;;;;;;0.85;0.60;;;19.40;52.10;;;;;;4995795;28;20034;-53
2020/12/20 04:33:40;;;;;;;0.65;0.60;;;19.40;52.10;;;;;;4995725;28;20089;-50
2020/12/20 04:36:06;;;;;;;0.85;0.68;;;19.40;52.10;;;;;;4996074;28;20045;-51
2020/12/20 04:38:33;;;;;;;2.80;0.73;;;19.40;52.10;;;;;;4996064;28;20042;-48
2020/12/20 04:40:59;;;;;;;2.10;0.90;;;19.30;52.10;;;;;;4996208;28;20038;-52
2020/12/20 04:43:25;;;;;;;1.35;0.70;;;19.30;52.10;;;;;;4996043;28;20085;-52
2020/12/20 04:45:53;;;;;;;0.70;0.50;;;19.30;52.10;;;;;;4996102;28;20043;-49
2020/12/20 04:48:20;;;;;;;1.15;0.70;;;19.30;52.10;;;;;;4996097;28;20476;-50
2020/12/20 04:50:47;;;;;;;0.60;0.57;;;19.30;52.10;;;;;;4995861;28;20113;-53
2020/12/20 04:53:13;;;;;;;1.65;0.55;;;19.30;52.10;;;;;;4996016;28;20126;-55
2020/12/20 04:55:39;;;;;;;0.95;0.60;;;19.30;52.20;;;;;;4995748;28;20066;-53
2020/12/20 04:58:05;;;;;;;0.85;0.50;;;19.30;52.10;;;;;;4995806;28;20441;-53
2020/12/20 05:00:31;;;;;;;1.10;0.70;;;19.30;52.10;;;;;;4995608;28;20058;-53
2020/12/20 05:02:57;;;;;;;0.85;0.70;;;19.30;52.20;;;;;;4995650;28;20062;-51
2020/12/20 05:05:23;;;;;;;0.65;0.57;;;19.30;52.20;;;;;;4995488;28;20368;-52
2020/12/20 05:07:48;;;;;;;1.17;0.60;;;19.30;52.20;;;;;;4995583;28;20113;-50
2020/12/20 05:10:14;;;;;;;0.80;0.70;;;19.30;52.20;;;;;;4995583;28;20034;-51
2020/12/20 05:12:39;;;;;;;0.65;0.60;;;19.30;52.20;;;;;;4995847;28;20109;-52
2020/12/20 05:15:25;;;;;;;0.80;0.80;;;19.30;52.20;;;;;;4995482;28;20408;-48
2020/12/20 05:18:11;;;;;;;1.13;0.63;;;19.30;52.20;;;;;;4995518;28;20122;-51
2020/12/20 05:20:45;;;;;;;0.60;0.47;;;19.20;52.10;;;;;;4995798;28;20038;-50
2020/12/20 05:23:11;;;;;;;0.57;0.55;;;19.20;52.10;;;;;;4995525;28;20042;-49
2020/12/20 05:25:38;;;;;;;0.88;0.70;;;19.20;52.80;;;;;;4995222;28;20445;-52
2020/12/20 05:28:09;;;;;;;1.15;0.85;;;19.20;52.20;;;;;;4995082;28;20477;-56
2020/12/20 05:30:35;;;;;;;0.73;0.70;;;19.20;52.30;;;;;;4995163;28;20076;-53
2020/12/20 05:33:01;;;;;;;0.60;0.60;;;19.20;52.90;;;;;;4995413;28;20054;-51
2020/12/20 05:35:27;;;;;;;0.82;0.47;;;19.20;52.20;;;;;;4995427;28;20548;-55
2020/12/20 05:37:53;;;;;;;2.60;0.75;;;19.20;52.20;;;;;;4995656;28;20121;-57
2020/12/20 05:40:28;;;;;;;0.73;0.60;;;19.20;52.20;;;;;;4994783;28;20034;-50
2020/12/20 05:43:01;;;;;;;1.63;0.50;;;19.20;52.20;;;;;;4995236;28;20042;-49
2020/12/20 05:45:37;;;;;;;0.52;0.47;;;19.20;52.20;;;;;;4994962;28;20078;-54
2020/12/20 05:48:18;;;;;;;3.00;0.93;;;19.20;52.30;;;;;;4995469;28;20038;-51
2020/12/20 05:50:57;;;;;;;1.52;0.80;;;19.10;52.20;;;;;;4998943;28;20035;-50
2020/12/20 05:53:23;;;;;;;1.30;0.60;;;19.20;52.20;;;;;;4998816;28;20430;-57
2020/12/20 05:55:50;;;;;;;0.70;0.70;;;19.20;52.30;;;;;;4998994;28;20038;-51
2020/12/20 05:58:16;;;;;;;0.70;0.55;;;19.10;52.20;;;;;;4999005;28;20034;-55
2020/12/20 06:00:43;;;;;;;0.60;0.50;;;19.10;52.20;;;;;;4999071;28;20405;-51
2020/12/20 06:03:10;;;;;;;0.50;0.35;;;19.10;52.20;;;;;;4998680;28;20113;-55
2020/12/20 06:05:41;;;;;;;0.55;0.47;;;19.20;52.30;;;;;;4999040;28;20046;-50
2020/12/20 06:08:12;;;;;;;0.50;0.50;;;19.20;52.30;;;;;;4999352;28;20177;-49
2020/12/20 06:10:43;;;;;;;0.60;0.60;;;19.10;52.20;;;;;;4999077;28;20097;-51
2020/12/20 06:13:11;;;;;;;0.60;0.60;;;19.10;52.20;;;;;;4998535;28;20062;-52
2020/12/20 06:15:40;;;;;;;0.70;0.50;;;19.10;52.20;;;;;;4998173;28;20453;-53
2020/12/20 06:18:13;;;;;;;0.85;0.60;;;19.10;52.30;;;;;;4998336;28;20077;-57
2020/12/20 06:20:49;;;;;;;;;;;19.10;52.20;;;;;;4999055;28;20129;-53
2020/12/20 06:23:18;;;;;;;0.88;0.50;;;19.10;52.30;;;;;;4998873;28;19905;-54
2020/12/20 06:25:45;;;;;;;1.42;0.50;;;19.10;52.30;;;;;;4998784;28;20064;-52
2020/12/20 06:28:19;;;;;;;0.70;0.55;;;19.10;52.30;;;;;;4998458;28;20508;-54
2020/12/20 06:30:45;;;;;;;0.57;0.43;;;19.10;52.30;;;;;;4998410;28;20072;-51
2020/12/20 06:33:17;;;;;;;0.68;0.65;;;19.10;52.40;;;;;;4998304;28;20126;-50
2020/12/20 06:35:45;;;;;;;1.17;0.40;;;19.10;52.40;;;;;;4998401;28;20061;-49
2020/12/20 06:38:14;;;;;;;0.90;0.50;;;19.10;52.40;;;;;;4998396;28;20057;-54
2020/12/20 06:40:41;;;;;;;0.93;0.60;;;19.10;52.40;;;;;;4998130;28;20038;-51
2020/12/20 06:43:09;;;;;;;0.63;0.63;;;19.00;52.30;;;;;;4997998;28;20038;-54
2020/12/20 06:45:45;;;;;;;1.15;0.70;;;19.00;52.30;;;;;;4998082;28;20349;-54
2020/12/20 06:48:13;;;;;;;0.82;0.50;;;19.00;52.30;;;;;;4998388;28;20097;-52
2020/12/20 06:50:38;;;;;;;1.15;0.90;;;19.00;52.30;;;;;;4998252;28;20034;-49
2020/12/20 06:53:08;;;;;;;0.85;0.60;;;19.00;52.30;;;;;;4998051;28;20430;-53
2020/12/20 06:55:34;;;;;;;1.00;0.60;;;19.00;52.30;;;;;;4998043;28;20068;-51
2020/12/20 06:58:02;;;;;;;0.52;0.40;;;19.00;52.30;;;;;;4997856;28;20042;-51
2020/12/20 07:00:54;;;;;;;0.68;0.45;;;19.00;52.30;;;;;;4997624;28;20046;-51
2020/12/20 07:03:30;;;;;;;1.17;0.65;;;19.00;52.30;;;;;;4998011;28;20065;-55
2020/12/20 07:05:57;;;;;;;1.05;0.60;;;19.00;52.40;;;;;;4997615;28;20045;-52
2020/12/20 07:08:27;;;;;;;0.30;0.30;;;19.00;52.40;;;;;;4997735;28;20100;-53
2020/12/20 07:10:54;;;;;;;0.75;0.60;;;19.00;52.40;;;;;;4997823;28;20096;-52
2020/12/20 07:13:37;;;;;;;0.55;0.43;;;19.00;52.40;;;;;;4997631;28;20112;-49
2020/12/20 07:16:16;;;;;;;0.93;0.63;;;19.00;52.40;;;;;;4980511;28;20365;-48
2020/12/20 07:19:03;;;;;;;1.42;0.60;;;19.00;53.10;;;;;;4997382;28;20034;-52
2020/12/20 07:21:29;;;;;;;1.30;0.60;;;19.00;52.40;;;;;;4997777;28;20030;-54
2020/12/20 07:24:19;;;;;;;0.60;0.55;;;18.90;52.30;;;;;;4997467;28;20034;-54
2020/12/20 07:26:46;;;;;;;2.30;0.60;;;18.90;52.40;;;;;;4997036;28;20035;-50
2020/12/20 07:29:12;;;;;;;1.20;0.60;;;18.90;52.40;;;;;;4997193;28;20035;-50
2020/12/20 07:31:38;;;;;;;0.52;0.52;;;19.00;52.50;;;;;;4996921;28;20362;-50
2020/12/20 07:34:05;;;;;;;1.25;0.60;;;18.90;52.40;;;;;;4997263;28;20041;-50
2020/12/20 07:36:32;;;;;;;0.65;0.60;;;18.90;52.40;;;;;;4996951;28;20476;-51
2020/12/20 07:38:58;;;;;;;1.73;0.73;;;18.90;52.40;;;;;;4997586;28;20050;-49
2020/12/20 07:41:26;;;;;;;0.73;0.52;;;18.90;52.50;;;;;;4997163;28;20385;-55
2020/12/20 07:43:52;;;;;;;1.10;0.73;;;18.90;52.40;;;;;;4996930;28;20492;-49
2020/12/20 07:46:20;;;;;;;0.90;0.70;;;18.90;52.50;;;;;;4979980;28;20420;-51
2020/12/20 07:48:46;;;;;;;1.45;0.50;;;18.90;52.40;;;;;;4996654;28;20053;-50
2020/12/20 07:51:20;;;;;;;0.75;0.40;;;18.90;52.40;;;;;;4996739;28;20041;-55
2020/12/20 07:53:51;;;;;;;0.45;0.40;;;18.90;52.50;;;;;;4996661;28;20042;-52
2020/12/20 07:56:47;;;;;;;0.82;0.45;;;18.90;52.50;;;;;;4996865;28;20096;-49
2020/12/20 07:59:18;;;;;;;1.05;0.50;;;18.90;52.50;;;;;;4983620;28;20096;-50
2020/12/20 08:01:45;;;;;;;0.93;0.68;;;18.90;52.50;;;;;;4996670;28;20069;-54
2020/12/20 08:04:16;;;;;;;1.05;0.80;;;18.80;52.40;;;;;;4996454;28;20053;-51
2020/12/20 08:06:44;;;;;;;1.17;0.60;;;18.90;52.50;;;;;;4996739;28;20049;-50
2020/12/20 08:09:11;;;;;;;0.60;0.40;;;18.80;52.50;;;;;;4996879;28;20100;-49
2020/12/20 08:11:37;;;;;;;0.95;0.40;;;18.90;52.50;;;;;;4996055;28;20124;-51
2020/12/20 08:14:06;;;;;;;0.88;0.60;;;18.90;52.50;;;;;;4996292;28;20584;-55
2020/12/20 08:16:34;;;;;;;0.43;0.40;;;18.80;52.50;;;;;;4996510;28;20089;-49
2020/12/20 08:19:07;;;;;;;0.95;0.60;;;18.80;53.20;;;;;;4996244;28;20100;-56
2020/12/20 08:21:42;;;;;;;0.80;0.70;;;18.80;52.50;;;;;;4996871;28;20042;-56
2020/12/20 08:24:10;;;;;;;1.17;0.73;;;18.80;52.50;;;;;;4996108;28;20062;-52
2020/12/20 08:26:35;;;;;;;0.80;0.60;;;18.80;52.50;;;;;;4996388;28;20085;-54
2020/12/20 08:29:02;;;;;;;1.70;0.40;;;18.80;52.50;;;;;;4996409;28;20109;-50
2020/12/20 08:31:32;;;;;;;0.80;0.40;;;18.80;52.50;;;;;;4996220;28;20397;-55
2020/12/20 08:33:58;;;;;;;0.40;0.40;;;18.80;52.50;;;;;;4996713;28;20038;-52
2020/12/20 08:36:25;;;;;;;0.50;0.40;;;18.80;52.50;;;;;;4996148;28;20097;-54
2020/12/20 08:38:51;;;;;;;0.77;0.57;;;18.80;52.50;;;;;;4996384;28;20042;-49
2020/12/20 08:41:22;;;;;;;0.88;0.60;;;18.80;52.50;;;;;;4996053;28;20034;-53
2020/12/20 08:43:47;;;;;;;2.03;0.88;;;18.80;52.50;;;;;;4995440;28;20453;-52
2020/12/20 08:46:35;;;;;;;0.47;0.47;;;18.80;53.10;;;;;;4995827;28;20061;-53
2020/12/20 08:49:18;;;;;;;0.55;0.40;;;18.80;52.50;;;;;;4996251;28;20045;-54
2020/12/20 08:51:45;;;;;;;0.80;0.50;;;18.80;52.50;;;;;;4996053;28;20118;-52
2020/12/20 08:54:11;;;;;;;0.95;0.60;;;18.80;52.50;;;;;;4996112;28;20030;-55
2020/12/20 08:56:55;;;;;;;1.52;0.60;;;18.80;52.50;;;;;;4995313;28;20487;-53
2020/12/20 08:59:35;;;;;;;2.00;0.50;;;18.80;52.50;;;;;;4995425;28;20076;-51
2020/12/20 09:02:03;;;;;;;1.08;0.50;;;18.80;52.50;;;;;;4995456;28;20033;-52
2020/12/20 09:04:32;;;;;;;0.80;0.50;;;18.80;52.50;;;;;;4995651;28;20044;-52
2020/12/20 09:06:58;;;;;;;1.40;0.50;;;18.70;52.50;;;;;;4993344;28;20100;-51
2020/12/20 09:09:25;;;;;;;0.77;0.52;;;18.70;52.50;;;;;;4979184;28;20034;-53
2020/12/20 09:11:50;;;;;;;2.45;0.65;;;18.70;52.50;;;;;;4995715;28;20030;-55
2020/12/20 09:14:16;;;;;;;0.50;0.43;;;18.70;52.50;;;;;;4995888;28;20045;-55
2020/12/20 09:16:42;;;;;;;0.88;0.73;;;18.70;52.50;;;;;;4995410;28;20037;-53
2020/12/20 09:19:12;;;;;;;0.80;0.50;;;18.70;52.50;;;;;;4995365;28;20042;-51
2020/12/20 09:21:37;;;;;;;1.45;0.70;;;18.80;52.60;;;;;;4995170;28;20050;-49
2020/12/20 09:24:03;;;;;;;1.27;0.65;;;18.70;52.50;;;;;;4994653;28;20109;-49
2020/12/20 09:26:28;;;;;;;2.15;0.65;;;18.80;52.60;;;;;;4995499;28;20057;-50
2020/12/20 09:28:54;;;;;;;0.80;0.60;;;18.70;52.60;;;;;;4995547;28;20105;-52
2020/12/20 09:31:20;;;;;;;3.13;0.77;;;18.80;52.60;;;;;;4995579;28;20035;-54
2020/12/20 09:33:49;;;;;;;0.80;0.80;;;18.70;52.60;;;;;;4994658;28;20034;-50
2020/12/20 09:36:25;;;;;;;3.47;0.60;;;18.80;52.80;;;;;;4995385;28;20058;-51
2020/12/20 09:38:53;;;;;;;2.42;0.70;;;18.80;53.00;;;;;;4995742;28;20054;-52
2020/12/20 09:41:24;;;;;;;3.40;0.80;;;18.80;53.00;;;;;;4995277;28;20030;-54
2020/12/20 09:43:52;;;;;;;4.18;0.98;;;18.80;53.10;;;;;;4995242;28;20419;-56
2020/12/20 09:46:35;;;;;;;4.68;0.77;;;18.80;53.10;;;;;;4994808;28;20050;-54
2020/12/20 09:49:03;;;;;;;7.40;1.02;;;18.80;53.10;;;;;;4995316;28;20113;-57
2020/12/20 09:51:31;;;;;;;2.50;0.90;;;18.80;53.10;;;;;;4995414;28;20045;-53
2020/12/20 09:53:57;;;;;;;4.20;0.85;;;18.80;53.10;;;;;;4995054;28;20109;-50
2020/12/20 09:56:23;;;;;;;4.85;0.95;;;18.90;53.20;;;;;;4994868;28;20034;-52
2020/12/20 09:58:49;;;;;;;1.42;1.05;;;18.90;53.30;;;;;;4995608;28;20453;-53
2020/12/20 10:01:16;;;;;;;1.55;0.80;;;18.90;53.20;;;;;;4995018;28;20031;-50
2020/12/20 10:03:41;;;;;;;3.83;0.95;;;18.90;53.20;;;;;;4995536;28;20062;-47
2020/12/20 10:06:07;;;;;;;3.67;0.85;;;19.00;53.30;;;;;;4995049;28;20409;-53
2020/12/20 10:08:32;;;;;;;4.15;1.05;;;19.00;53.30;;;;;;4995243;28;20031;-55
2020/12/20 10:10:58;;;;;;;4.43;1.33;;;19.10;53.40;;;;;;4994988;28;20045;-52
2020/12/20 10:13:23;;;;;;;3.38;0.95;;;19.10;53.40;;;;;;4995026;28;20410;-53
2020/12/20 10:15:49;;;;;;;2.03;1.08;;;19.20;53.40;;;;;;4994960;28;20038;-54
2020/12/20 10:18:15;;;;;;;1.52;1.05;;;19.20;53.40;;;;;;4995583;28;20061;-53
2020/12/20 10:20:40;;;;;;;2.22;1.00;;;19.30;53.50;;;;;;4994768;28;20030;-53
2020/12/20 10:23:06;;;;;;;4.15;0.85;;;19.30;53.40;;;;;;4994980;28;20368;-56
2020/12/20 10:25:32;;;;;;;6.53;1.02;;;19.40;53.40;;;;;;4995070;28;20060;-51
2020/12/20 10:27:58;;;;;;;4.97;1.20;;;19.40;53.30;;;;;;4995064;28;20062;-47
2020/12/20 10:30:26;;;;;;;5.43;1.08;;;19.50;53.30;;;;;;4994675;28;20356;-50
2020/12/20 10:32:54;;;;;;;2.75;0.80;;;19.60;53.40;;;;;;4994818;28;20445;-51
2020/12/20 10:35:23;;;;;;;3.80;1.00;;;19.60;53.40;;;;;;4996158;28;20441;-50
2020/12/20 10:37:53;;;;;;;2.58;0.82;;;19.60;53.40;;;;;;4997514;28;20042;-49
2020/12/20 10:40:18;;;;;;;1.08;0.80;;;19.70;53.40;;;;;;4998152;28;20076;-55
2020/12/20 10:42:47;;;;;;;6.00;0.80;;;19.80;53.40;;;;;;4998251;28;20441;-49
2020/12/20 10:45:13;;;;;;;4.20;0.90;;;19.80;53.30;;;;;;4997888;28;20038;-50
2020/12/20 10:47:39;;;;;;;2.35;0.60;;;19.80;53.20;;;;;;4998334;28;20128;-48
2020/12/20 10:50:05;;;;;;;2.35;0.70;;;19.90;53.20;;;;;;4998256;28;20417;-50
2020/12/20 10:52:30;;;;;;;3.92;0.90;;;19.90;53.20;;;;;;4998460;28;20117;-47
2020/12/20 10:54:56;;;;;;;2.08;0.57;;;19.90;53.10;;;;;;4997959;28;20088;-51
2020/12/20 10:57:21;;;;;;;3.97;1.02;;;20.10;53.10;;;;;;4997879;28;20101;-52
2020/12/20 10:59:47;;;;;;;2.10;0.60;;;20.10;53.10;;;;;;4997996;28;20030;-54
2020/12/20 11:02:12;;;;;;;2.53;1.30;;;20.10;53.00;;;;;;4997807;28;20389;-49
2020/12/20 11:04:38;;;;;;;3.08;1.55;;;20.10;52.90;;;;;;4997582;28;20042;-53
2020/12/20 11:07:04;;;;;;;1.38;0.90;;;20.20;52.80;;;;;;4997411;28;20067;-53
2020/12/20 11:09:30;;;;;;;2.08;1.10;;;20.20;52.80;;;;;;4998007;28;20038;-50
2020/12/20 11:11:56;;;;;;;2.17;1.00;;;20.20;52.70;;;;;;4997289;28;20042;-52
2020/12/20 11:14:23;;;;;;;3.20;0.88;;;20.30;52.60;;;;;;4997300;28;20030;-52
2020/12/20 11:16:50;;;;;;;2.17;1.02;;;20.20;52.50;;;;;;4997676;28;20034;-51
2020/12/20 11:19:15;;;;;;;2.67;0.82;;;20.20;52.40;;;;;;4997574;28;20026;-50
2020/12/20 11:21:41;;;;;;;2.05;0.73;;;20.20;52.40;;;;;;4997582;28;20101;-51
2020/12/20 11:24:06;;;;;;;4.30;1.17;;;20.20;52.50;;;;;;4997721;28;20041;-53
2020/12/20 11:26:35;;;;;;;3.60;0.90;;;20.30;52.50;;;;;;4997422;28;20421;-52
2020/12/20 11:29:00;;;;;;;5.22;1.10;;;20.30;52.50;;;;;;4997468;28;20045;-55
2020/12/20 11:31:27;;;;;;;3.17;1.17;;;20.30;52.50;;;;;;4997348;28;20042;-52
2020/12/20 11:33:53;;;;;;;2.28;0.95;;;20.30;52.50;;;;;;4997247;28;20084;-47
2020/12/20 11:36:21;;;;;;;4.93;1.00;;;20.30;52.60;;;;;;4997686;28;20038;-55
2020/12/20 11:38:47;;;;;;;1.88;1.00;;;20.40;52.60;;;;;;4997320;28;20466;-51
2020/12/20 11:41:13;;;;;;;5.75;0.90;;;20.40;52.80;;;;;;4996877;28;20059;-55
2020/12/20 11:43:39;;;;;;;4.63;1.10;;;20.40;52.60;;;;;;4996977;28;20046;-48
2020/12/20 11:46:05;;;;;;;4.10;0.82;;;20.40;52.60;;;;;;4996760;28;20038;-54
2020/12/20 11:48:31;;;;;;;3.75;1.02;;;20.50;52.60;;;;;;4997007;28;20030;-51
2020/12/20 11:50:57;;;;;;;1.88;1.00;;;20.50;52.50;;;;;;4997140;28;20442;-51
2020/12/20 11:53:26;;;;;;;0.82;0.52;;;20.50;52.50;;;;;;4996836;28;20449;-56
2020/12/20 11:55:52;;;;;;;4.45;0.90;;;20.60;52.60;;;;;;4996843;28;20145;-51
2020/12/20 11:58:18;;;;;;;5.50;0.77;;;20.60;52.60;;;;;;4996665;28;20469;-55
2020/12/20 12:00:45;;;;;;;6.15;1.08;;;20.60;52.50;;;;;;4997058;28;20038;-49
2020/12/20 12:03:12;;;;;;;4.55;1.08;;;20.60;52.50;;;;;;4996612;28;20037;-56
2020/12/20 12:05:38;;;;;;;6.63;2.20;;;20.70;52.30;;;;;;4996568;28;20038;-58
2020/12/20 12:08:05;;;;;;;3.70;1.00;;;20.70;51.30;;;;;;4996657;28;20049;-50
2020/12/20 12:10:31;;;;;;;4.88;1.40;;;20.80;51.80;;;;;;4996795;28;20034;-53
2020/12/20 12:12:57;;;;;;;6.18;1.45;;;20.80;52.10;;;;;;4996816;28;20112;-54
2020/12/20 12:15:22;;;;;;;4.78;0.98;;;20.80;52.30;;;;;;4996601;28;20041;-55
2020/12/20 12:17:48;;;;;;;5.20;1.20;;;20.90;52.50;;;;;;4996269;28;20042;-56
2020/12/20 12:20:13;;;;;;;6.15;1.40;;;20.90;53.50;;;;;;4996566;28;20444;-52
2020/12/20 12:22:40;;;;;;;5.40;1.83;;;20.90;52.80;;;;;;4996693;28;20092;-53
2020/12/20 12:25:06;;;;;;;5.90;1.67;;;20.90;52.60;;;;;;4996340;28;20026;-52
2020/12/20 12:27:32;;;;;;;6.85;1.98;;;20.90;52.20;;;;;;4995940;28;20416;-52
2020/12/20 12:29:57;;;;;;;14.05;2.08;;;20.90;51.90;;;;;;4995791;28;20042;-55
2020/12/20 12:32:23;;;;;;;9.13;2.35;;;20.90;51.90;;;;;;4995817;28;20125;-52
2020/12/20 12:34:48;;;;;;;10.50;2.60;;;20.80;51.80;;;;;;4995729;28;20049;-56
2020/12/20 12:37:14;;;;;;;10.80;2.95;;;20.80;51.80;;;;;;4996063;28;20034;-55
2020/12/20 12:39:39;;;;;;;8.13;2.42;;;20.70;51.90;;;;;;4996258;28;20054;-53
2020/12/20 12:42:05;;;;;;;4.57;2.00;;;20.70;52.70;;;;;;4995371;28;20429;-49
2020/12/20 12:44:31;;;;;;;8.90;2.20;;;20.70;52.80;;;;;;4996284;28;20113;-50
2020/12/20 12:46:57;;;;;;;4.78;2.17;;;20.70;52.70;;;;;;4996145;28;20104;-52
2020/12/20 12:49:25;;;;;;;7.10;1.92;;;20.70;52.60;;;;;;4995861;28;20465;-51